sensor_id;sensor_type;location;lat;lon;timestamp;P1;durP1;ratioP1;P2;durP2;ratioP2
69856;SDS011;57147;53.582;10.112;2023-07-24T00:03:18;2.78;;;1.55;;
69856;SDS011;57147;53.582;10.112;2023-07-24T00:08:19;3.30;;;2.22;;
69856;SDS011;57147;53.582;10.112;2023-07-24T00:13:19;3.42;;;1.85;;
69856;SDS011;57147;53.582;10.112;2023-07-24T00:18:22;2.72;;;1.80;;
69856;SDS011;57147;53.582;10.112;2023-07-24T00:23:23;3.78;;;1.55;;
69856;SDS011;57147;53.582;10.112;2023-07-24T00:28:24;3.53;;;1.98;;
69856;SDS011;57147;53.582;10.112;2023-07-24T00:33:27;2.75;;;1.80;;
69856;SDS011;57147;53.582;10.112;2023-07-24T00:38:27;3.60;;;2.22;;
69856;SDS011;57147;53.582;10.112;2023-07-24T00:43:28;2.97;;;1.60;;
69856;SDS011;57147;53.582;10.112;2023-07-24T00:48:31;2.97;;;2.17;;
69856;SDS011;57147;53.582;10.112;2023-07-24T00:53:32;5.03;;;2.63;;
69856;SDS011;57147;53.582;10.112;2023-07-24T00:58:32;3.35;;;2.47;;
69856;SDS011;57147;53.582;10.112;2023-07-24T01:03:36;5.30;;;2.83;;
69856;SDS011;57147;53.582;10.112;2023-07-24T01:08:38;2.83;;;1.83;;
69856;SDS011;57147;53.582;10.112;2023-07-24T01:13:40;3.50;;;2.40;;
69856;SDS011;57147;53.582;10.112;2023-07-24T01:18:50;3.83;;;2.50;;
69856;SDS011;57147;53.582;10.112;2023-07-24T01:28:58;3.38;;;2.28;;
69856;SDS011;57147;53.582;10.112;2023-07-24T01:33:58;3.47;;;2.35;;
69856;SDS011;57147;53.582;10.112;2023-07-24T01:38:59;3.90;;;2.50;;
69856;SDS011;57147;53.582;10.112;2023-07-24T01:44:02;4.88;;;2.58;;
69856;SDS011;57147;53.582;10.112;2023-07-24T01:49:05;2.80;;;2.00;;
69856;SDS011;57147;53.582;10.112;2023-07-24T01:54:05;3.58;;;3.20;;
69856;SDS011;57147;53.582;10.112;2023-07-24T01:59:09;2.85;;;2.08;;
69856;SDS011;57147;53.582;10.112;2023-07-24T02:04:09;3.85;;;2.28;;
69856;SDS011;57147;53.582;10.112;2023-07-24T02:09:10;4.45;;;2.45;;
69856;SDS011;57147;53.582;10.112;2023-07-24T02:14:14;2.90;;;2.03;;
69856;SDS011;57147;53.582;10.112;2023-07-24T02:19:14;3.47;;;2.33;;
69856;SDS011;57147;53.582;10.112;2023-07-24T02:24:15;3.53;;;2.58;;
69856;SDS011;57147;53.582;10.112;2023-07-24T02:29:18;3.00;;;2.25;;
69856;SDS011;57147;53.582;10.112;2023-07-24T02:34:19;4.13;;;2.50;;
69856;SDS011;57147;53.582;10.112;2023-07-24T02:39:19;5.30;;;2.97;;
69856;SDS011;57147;53.582;10.112;2023-07-24T02:44:23;3.92;;;2.40;;
69856;SDS011;57147;53.582;10.112;2023-07-24T02:49:23;3.83;;;2.83;;
69856;SDS011;57147;53.582;10.112;2023-07-24T02:54:25;4.10;;;2.58;;
69856;SDS011;57147;53.582;10.112;2023-07-24T02:59:28;4.13;;;2.28;;
69856;SDS011;57147;53.582;10.112;2023-07-24T03:04:29;3.80;;;2.78;;
69856;SDS011;57147;53.582;10.112;2023-07-24T03:09:30;4.20;;;2.97;;
69856;SDS011;57147;53.582;10.112;2023-07-24T03:14:33;3.95;;;2.90;;
69856;SDS011;57147;53.582;10.112;2023-07-24T03:19:33;6.07;;;2.88;;
69856;SDS011;57147;53.582;10.112;2023-07-24T03:24:34;4.32;;;2.55;;
69856;SDS011;57147;53.582;10.112;2023-07-24T03:29:38;4.15;;;2.63;;
69856;SDS011;57147;53.582;10.112;2023-07-24T03:34:39;3.85;;;2.85;;
69856;SDS011;57147;53.582;10.112;2023-07-24T03:39:39;3.47;;;2.70;;
69856;SDS011;57147;53.582;10.112;2023-07-24T03:44:42;4.43;;;3.10;;
69856;SDS011;57147;53.582;10.112;2023-07-24T03:49:43;5.32;;;4.82;;
69856;SDS011;57147;53.582;10.112;2023-07-24T03:54:43;6.90;;;2.28;;
69856;SDS011;57147;53.582;10.112;2023-07-24T03:59:47;4.28;;;2.63;;
69856;SDS011;57147;53.582;10.112;2023-07-24T04:04:47;5.28;;;4.28;;
69856;SDS011;57147;53.582;10.112;2023-07-24T04:09:48;4.40;;;3.83;;
69856;SDS011;57147;53.582;10.112;2023-07-24T04:14:51;4.10;;;3.38;;
69856;SDS011;57147;53.582;10.112;2023-07-24T04:19:52;5.95;;;3.97;;
69856;SDS011;57147;53.582;10.112;2023-07-24T04:24:52;5.63;;;4.07;;
69856;SDS011;57147;53.582;10.112;2023-07-24T04:29:55;4.78;;;3.40;;
69856;SDS011;57147;53.582;10.112;2023-07-24T04:34:56;4.80;;;2.83;;
69856;SDS011;57147;53.582;10.112;2023-07-24T04:39:57;6.32;;;3.53;;
69856;SDS011;57147;53.582;10.112;2023-07-24T04:45:00;5.35;;;3.67;;
69856;SDS011;57147;53.582;10.112;2023-07-24T04:50:00;4.57;;;3.17;;
69856;SDS011;57147;53.582;10.112;2023-07-24T04:55:01;8.18;;;6.45;;
69856;SDS011;57147;53.582;10.112;2023-07-24T05:00:05;5.07;;;3.40;;
69856;SDS011;57147;53.582;10.112;2023-07-24T05:05:07;5.43;;;3.17;;
69856;SDS011;57147;53.582;10.112;2023-07-24T05:10:08;5.32;;;4.20;;
69856;SDS011;57147;53.582;10.112;2023-07-24T05:15:12;5.30;;;3.95;;
69856;SDS011;57147;53.582;10.112;2023-07-24T05:20:12;4.95;;;3.08;;
69856;SDS011;57147;53.582;10.112;2023-07-24T05:25:13;5.13;;;3.17;;
69856;SDS011;57147;53.582;10.112;2023-07-24T05:30:16;4.53;;;3.65;;
69856;SDS011;57147;53.582;10.112;2023-07-24T05:35:17;4.75;;;3.35;;
69856;SDS011;57147;53.582;10.112;2023-07-24T05:40:17;4.60;;;3.03;;
69856;SDS011;57147;53.582;10.112;2023-07-24T05:45:21;4.43;;;2.78;;
69856;SDS011;57147;53.582;10.112;2023-07-24T05:50:24;4.78;;;2.97;;
69856;SDS011;57147;53.582;10.112;2023-07-24T05:55:25;4.03;;;3.10;;
69856;SDS011;57147;53.582;10.112;2023-07-24T06:00:28;6.13;;;3.22;;
69856;SDS011;57147;53.582;10.112;2023-07-24T06:05:29;5.05;;;3.45;;
69856;SDS011;57147;53.582;10.112;2023-07-24T06:10:29;4.00;;;2.50;;
69856;SDS011;57147;53.582;10.112;2023-07-24T06:15:33;4.82;;;3.28;;
69856;SDS011;57147;53.582;10.112;2023-07-24T06:20:33;4.13;;;2.22;;
69856;SDS011;57147;53.582;10.112;2023-07-24T06:25:34;3.97;;;2.80;;
69856;SDS011;57147;53.582;10.112;2023-07-24T06:30:37;5.80;;;3.10;;
69856;SDS011;57147;53.582;10.112;2023-07-24T06:35:38;4.97;;;3.55;;
69856;SDS011;57147;53.582;10.112;2023-07-24T06:40:39;6.55;;;3.47;;
69856;SDS011;57147;53.582;10.112;2023-07-24T06:45:43;4.32;;;3.70;;
69856;SDS011;57147;53.582;10.112;2023-07-24T06:50:43;5.82;;;3.35;;
69856;SDS011;57147;53.582;10.112;2023-07-24T06:55:44;5.07;;;3.70;;
69856;SDS011;57147;53.582;10.112;2023-07-24T07:00:47;5.18;;;3.30;;
69856;SDS011;57147;53.582;10.112;2023-07-24T07:05:48;5.97;;;4.72;;
69856;SDS011;57147;53.582;10.112;2023-07-24T07:10:54;4.43;;;3.83;;
69856;SDS011;57147;53.582;10.112;2023-07-24T07:15:57;6.75;;;6.15;;
69856;SDS011;57147;53.582;10.112;2023-07-24T07:20:58;6.40;;;4.65;;
69856;SDS011;57147;53.582;10.112;2023-07-24T07:25:59;6.38;;;4.40;;
69856;SDS011;57147;53.582;10.112;2023-07-24T07:31:02;6.28;;;4.38;;
69856;SDS011;57147;53.582;10.112;2023-07-24T07:36:03;4.93;;;3.85;;
69856;SDS011;57147;53.582;10.112;2023-07-24T07:41:04;5.15;;;3.08;;
69856;SDS011;57147;53.582;10.112;2023-07-24T07:46:07;6.47;;;4.60;;
69856;SDS011;57147;53.582;10.112;2023-07-24T07:51:08;5.22;;;3.28;;
69856;SDS011;57147;53.582;10.112;2023-07-24T07:56:08;4.45;;;3.40;;
69856;SDS011;57147;53.582;10.112;2023-07-24T08:01:11;5.03;;;3.92;;
69856;SDS011;57147;53.582;10.112;2023-07-24T08:06:12;4.53;;;2.88;;
69856;SDS011;57147;53.582;10.112;2023-07-24T08:11:13;4.57;;;3.65;;
69856;SDS011;57147;53.582;10.112;2023-07-24T08:16:16;4.63;;;3.53;;
69856;SDS011;57147;53.582;10.112;2023-07-24T08:21:16;6.28;;;3.85;;
69856;SDS011;57147;53.582;10.112;2023-07-24T08:26:17;4.55;;;3.35;;
69856;SDS011;57147;53.582;10.112;2023-07-24T08:31:20;4.10;;;3.45;;
69856;SDS011;57147;53.582;10.112;2023-07-24T08:36:21;5.88;;;4.00;;
69856;SDS011;57147;53.582;10.112;2023-07-24T08:41:22;5.85;;;5.25;;
69856;SDS011;57147;53.582;10.112;2023-07-24T08:46:25;5.53;;;4.80;;
69856;SDS011;57147;53.582;10.112;2023-07-24T08:51:27;5.80;;;5.03;;
69856;SDS011;57147;53.582;10.112;2023-07-24T08:56:29;5.40;;;4.18;;
69856;SDS011;57147;53.582;10.112;2023-07-24T09:01:32;4.95;;;3.63;;
69856;SDS011;57147;53.582;10.112;2023-07-24T09:06:33;6.35;;;5.63;;
69856;SDS011;57147;53.582;10.112;2023-07-24T09:11:34;5.63;;;4.72;;
69856;SDS011;57147;53.582;10.112;2023-07-24T09:16:48;6.85;;;5.80;;
69856;SDS011;57147;53.582;10.112;2023-07-24T09:21:48;7.07;;;5.28;;
69856;SDS011;57147;53.582;10.112;2023-07-24T09:26:49;6.78;;;5.95;;
69856;SDS011;57147;53.582;10.112;2023-07-24T09:31:53;5.88;;;5.00;;
69856;SDS011;57147;53.582;10.112;2023-07-24T09:36:54;6.75;;;5.20;;
69856;SDS011;57147;53.582;10.112;2023-07-24T09:42:02;6.40;;;5.05;;
69856;SDS011;57147;53.582;10.112;2023-07-24T09:47:05;5.78;;;5.18;;
69856;SDS011;57147;53.582;10.112;2023-07-24T09:57:09;7.43;;;5.45;;
69856;SDS011;57147;53.582;10.112;2023-07-24T10:02:13;6.07;;;4.85;;
69856;SDS011;57147;53.582;10.112;2023-07-24T10:07:14;7.07;;;4.57;;
69856;SDS011;57147;53.582;10.112;2023-07-24T10:12:15;6.28;;;5.03;;
69856;SDS011;57147;53.582;10.112;2023-07-24T10:17:33;6.68;;;5.20;;
69856;SDS011;57147;53.582;10.112;2023-07-24T10:22:35;6.07;;;5.05;;
69856;SDS011;57147;53.582;10.112;2023-07-24T10:27:39;5.78;;;4.63;;
69856;SDS011;57147;53.582;10.112;2023-07-24T10:32:47;6.05;;;5.03;;
69856;SDS011;57147;53.582;10.112;2023-07-24T10:37:58;6.20;;;4.63;;
69856;SDS011;57147;53.582;10.112;2023-07-24T10:43:00;6.35;;;4.85;;
69856;SDS011;57147;53.582;10.112;2023-07-24T10:48:03;5.25;;;4.28;;
69856;SDS011;57147;53.582;10.112;2023-07-24T10:53:04;6.28;;;5.07;;
69856;SDS011;57147;53.582;10.112;2023-07-24T10:58:05;5.88;;;4.05;;
69856;SDS011;57147;53.582;10.112;2023-07-24T11:03:11;7.72;;;4.57;;
69856;SDS011;57147;53.582;10.112;2023-07-24T11:08:13;5.32;;;4.35;;
69856;SDS011;57147;53.582;10.112;2023-07-24T11:13:15;5.40;;;4.35;;
69856;SDS011;57147;53.582;10.112;2023-07-24T11:18:19;6.50;;;4.38;;
69856;SDS011;57147;53.582;10.112;2023-07-24T11:23:20;6.32;;;4.57;;
69856;SDS011;57147;53.582;10.112;2023-07-24T11:28:21;6.32;;;4.05;;
69856;SDS011;57147;53.582;10.112;2023-07-24T11:33:24;5.07;;;4.10;;
69856;SDS011;57147;53.582;10.112;2023-07-24T11:38:25;4.22;;;3.00;;
69856;SDS011;57147;53.582;10.112;2023-07-24T11:43:26;4.50;;;3.20;;
69856;SDS011;57147;53.582;10.112;2023-07-24T11:48:29;5.20;;;4.30;;
69856;SDS011;57147;53.582;10.112;2023-07-24T11:53:31;4.47;;;3.75;;
69856;SDS011;57147;53.582;10.112;2023-07-24T11:58:31;8.05;;;5.80;;
69856;SDS011;57147;53.582;10.112;2023-07-24T12:03:35;4.20;;;3.78;;
69856;SDS011;57147;53.582;10.112;2023-07-24T12:08:36;6.10;;;5.50;;
69856;SDS011;57147;53.582;10.112;2023-07-24T12:13:36;5.25;;;4.55;;
69856;SDS011;57147;53.582;10.112;2023-07-24T12:18:39;4.07;;;3.67;;
69856;SDS011;57147;53.582;10.112;2023-07-24T12:23:40;4.05;;;3.33;;
69856;SDS011;57147;53.582;10.112;2023-07-24T12:28:41;5.45;;;4.28;;
69856;SDS011;57147;53.582;10.112;2023-07-24T12:33:46;4.85;;;3.58;;
69856;SDS011;57147;53.582;10.112;2023-07-24T12:38:47;5.30;;;4.60;;
69856;SDS011;57147;53.582;10.112;2023-07-24T12:43:47;4.80;;;3.80;;
69856;SDS011;57147;53.582;10.112;2023-07-24T12:48:51;3.25;;;2.72;;
69856;SDS011;57147;53.582;10.112;2023-07-24T12:53:51;3.72;;;3.38;;
69856;SDS011;57147;53.582;10.112;2023-07-24T12:58:52;3.22;;;2.67;;
69856;SDS011;57147;53.582;10.112;2023-07-24T13:03:55;3.08;;;2.65;;
69856;SDS011;57147;53.582;10.112;2023-07-24T13:08:55;2.80;;;2.50;;
69856;SDS011;57147;53.582;10.112;2023-07-24T13:13:56;3.45;;;2.83;;
69856;SDS011;57147;53.582;10.112;2023-07-24T13:18:59;2.97;;;2.35;;
69856;SDS011;57147;53.582;10.112;2023-07-24T13:24:01;2.92;;;2.45;;
69856;SDS011;57147;53.582;10.112;2023-07-24T13:29:02;2.97;;;2.25;;
69856;SDS011;57147;53.582;10.112;2023-07-24T13:34:05;5.68;;;2.20;;
69856;SDS011;57147;53.582;10.112;2023-07-24T13:39:06;2.22;;;1.73;;
69856;SDS011;57147;53.582;10.112;2023-07-24T13:44:09;4.30;;;2.42;;
69856;SDS011;57147;53.582;10.112;2023-07-24T13:49:13;3.25;;;2.30;;
69856;SDS011;57147;53.582;10.112;2023-07-24T13:54:13;3.25;;;2.28;;
69856;SDS011;57147;53.582;10.112;2023-07-24T13:59:14;3.45;;;3.15;;
69856;SDS011;57147;53.582;10.112;2023-07-24T14:04:17;2.95;;;2.38;;
69856;SDS011;57147;53.582;10.112;2023-07-24T14:09:18;3.25;;;2.30;;
69856;SDS011;57147;53.582;10.112;2023-07-24T14:14:18;3.83;;;2.13;;
69856;SDS011;57147;53.582;10.112;2023-07-24T14:19:21;3.22;;;2.20;;
69856;SDS011;57147;53.582;10.112;2023-07-24T14:24:22;3.80;;;2.30;;
69856;SDS011;57147;53.582;10.112;2023-07-24T14:29:23;2.28;;;1.50;;
69856;SDS011;57147;53.582;10.112;2023-07-24T14:34:26;2.63;;;2.20;;
69856;SDS011;57147;53.582;10.112;2023-07-24T14:39:26;5.05;;;2.58;;
69856;SDS011;57147;53.582;10.112;2023-07-24T14:44:27;3.10;;;2.65;;
69856;SDS011;57147;53.582;10.112;2023-07-24T14:49:30;3.35;;;2.42;;
69856;SDS011;57147;53.582;10.112;2023-07-24T14:54:31;3.83;;;3.30;;
69856;SDS011;57147;53.582;10.112;2023-07-24T14:59:31;5.65;;;3.78;;
69856;SDS011;57147;53.582;10.112;2023-07-24T15:04:34;3.90;;;3.33;;
69856;SDS011;57147;53.582;10.112;2023-07-24T15:09:35;3.88;;;3.35;;
69856;SDS011;57147;53.582;10.112;2023-07-24T15:14:36;3.55;;;2.72;;
69856;SDS011;57147;53.582;10.112;2023-07-24T15:19:39;3.78;;;3.05;;
69856;SDS011;57147;53.582;10.112;2023-07-24T15:24:39;5.70;;;4.10;;
69856;SDS011;57147;53.582;10.112;2023-07-24T15:29:40;4.57;;;3.55;;
69856;SDS011;57147;53.582;10.112;2023-07-24T15:34:43;5.70;;;3.90;;
69856;SDS011;57147;53.582;10.112;2023-07-24T15:39:44;6.32;;;3.75;;
69856;SDS011;57147;53.582;10.112;2023-07-24T15:44:44;1.58;;;0.50;;
69856;SDS011;57147;53.582;10.112;2023-07-24T15:49:47;1.13;;;0.50;;
69856;SDS011;57147;53.582;10.112;2023-07-24T15:54:48;1.88;;;0.95;;
69856;SDS011;57147;53.582;10.112;2023-07-24T15:59:49;3.08;;;1.50;;
69856;SDS011;57147;53.582;10.112;2023-07-24T16:04:52;5.35;;;2.58;;
69856;SDS011;57147;53.582;10.112;2023-07-24T16:09:52;3.92;;;1.95;;
69856;SDS011;57147;53.582;10.112;2023-07-24T16:14:53;3.83;;;2.08;;
69856;SDS011;57147;53.582;10.112;2023-07-24T16:19:56;12.40;;;5.18;;
69856;SDS011;57147;53.582;10.112;2023-07-24T16:24:57;12.02;;;5.28;;
69856;SDS011;57147;53.582;10.112;2023-07-24T16:29:57;12.45;;;4.28;;
69856;SDS011;57147;53.582;10.112;2023-07-24T16:35:01;12.05;;;5.55;;
69856;SDS011;57147;53.582;10.112;2023-07-24T16:40:01;11.05;;;5.80;;
69856;SDS011;57147;53.582;10.112;2023-07-24T16:45:03;15.90;;;7.32;;
69856;SDS011;57147;53.582;10.112;2023-07-24T16:55:10;12.32;;;5.88;;
69856;SDS011;57147;53.582;10.112;2023-07-24T17:00:11;16.08;;;9.55;;
69856;SDS011;57147;53.582;10.112;2023-07-24T17:05:15;16.58;;;8.95;;
69856;SDS011;57147;53.582;10.112;2023-07-24T17:10:16;13.90;;;8.10;;
69856;SDS011;57147;53.582;10.112;2023-07-24T17:15:16;7.95;;;5.55;;
69856;SDS011;57147;53.582;10.112;2023-07-24T17:20:20;14.25;;;7.80;;
69856;SDS011;57147;53.582;10.112;2023-07-24T17:25:20;12.52;;;6.50;;
69856;SDS011;57147;53.582;10.112;2023-07-24T17:30:21;10.48;;;5.65;;
69856;SDS011;57147;53.582;10.112;2023-07-24T17:35:25;7.10;;;4.57;;
69856;SDS011;57147;53.582;10.112;2023-07-24T17:40:27;12.40;;;6.15;;
69856;SDS011;57147;53.582;10.112;2023-07-24T17:45:28;5.20;;;3.28;;
69856;SDS011;57147;53.582;10.112;2023-07-24T17:50:31;5.32;;;3.83;;
69856;SDS011;57147;53.582;10.112;2023-07-24T17:55:32;6.50;;;4.00;;
69856;SDS011;57147;53.582;10.112;2023-07-24T18:00:32;6.43;;;3.67;;
69856;SDS011;57147;53.582;10.112;2023-07-24T18:05:36;6.75;;;5.22;;
69856;SDS011;57147;53.582;10.112;2023-07-24T18:10:36;8.05;;;5.15;;
69856;SDS011;57147;53.582;10.112;2023-07-24T18:15:37;6.50;;;4.07;;
69856;SDS011;57147;53.582;10.112;2023-07-24T18:20:40;5.63;;;3.63;;
69856;SDS011;57147;53.582;10.112;2023-07-24T18:25:41;6.85;;;4.85;;
69856;SDS011;57147;53.582;10.112;2023-07-24T18:30:41;8.73;;;5.18;;
69856;SDS011;57147;53.582;10.112;2023-07-24T18:35:44;6.00;;;4.45;;
69856;SDS011;57147;53.582;10.112;2023-07-24T18:40:45;7.30;;;3.00;;
69856;SDS011;57147;53.582;10.112;2023-07-24T18:45:46;8.00;;;5.20;;
69856;SDS011;57147;53.582;10.112;2023-07-24T18:50:49;8.65;;;4.55;;
69856;SDS011;57147;53.582;10.112;2023-07-24T18:55:49;7.63;;;5.82;;
69856;SDS011;57147;53.582;10.112;2023-07-24T19:00:50;7.53;;;5.30;;
69856;SDS011;57147;53.582;10.112;2023-07-24T19:05:53;6.22;;;4.90;;
69856;SDS011;57147;53.582;10.112;2023-07-24T19:10:54;9.52;;;7.60;;
69856;SDS011;57147;53.582;10.112;2023-07-24T19:15:55;7.50;;;5.35;;
69856;SDS011;57147;53.582;10.112;2023-07-24T19:20:58;8.10;;;4.63;;
69856;SDS011;57147;53.582;10.112;2023-07-24T19:25:58;6.95;;;5.22;;
69856;SDS011;57147;53.582;10.112;2023-07-24T19:30:59;7.18;;;5.32;;
69856;SDS011;57147;53.582;10.112;2023-07-24T19:36:02;5.32;;;3.53;;
69856;SDS011;57147;53.582;10.112;2023-07-24T19:41:03;5.70;;;3.75;;
69856;SDS011;57147;53.582;10.112;2023-07-24T19:46:04;6.55;;;4.25;;
69856;SDS011;57147;53.582;10.112;2023-07-24T19:51:08;5.55;;;3.42;;
69856;SDS011;57147;53.582;10.112;2023-07-24T19:56:08;4.88;;;2.78;;
69856;SDS011;57147;53.582;10.112;2023-07-24T20:01:09;6.50;;;4.03;;
69856;SDS011;57147;53.582;10.112;2023-07-24T20:06:12;6.95;;;3.63;;
69856;SDS011;57147;53.582;10.112;2023-07-24T20:11:13;5.45;;;3.65;;
69856;SDS011;57147;53.582;10.112;2023-07-24T20:16:13;5.90;;;4.07;;
69856;SDS011;57147;53.582;10.112;2023-07-24T20:21:17;7.22;;;4.43;;
69856;SDS011;57147;53.582;10.112;2023-07-24T20:26:17;6.40;;;4.53;;
69856;SDS011;57147;53.582;10.112;2023-07-24T20:31:18;6.95;;;4.38;;
69856;SDS011;57147;53.582;10.112;2023-07-24T20:36:21;5.97;;;4.10;;
69856;SDS011;57147;53.582;10.112;2023-07-24T20:41:22;7.75;;;4.60;;
69856;SDS011;57147;53.582;10.112;2023-07-24T20:46:23;6.07;;;2.90;;
69856;SDS011;57147;53.582;10.112;2023-07-24T20:51:26;6.85;;;2.83;;
69856;SDS011;57147;53.582;10.112;2023-07-24T20:56:26;6.78;;;1.90;;
69856;SDS011;57147;53.582;10.112;2023-07-24T21:01:27;3.60;;;2.35;;
69856;SDS011;57147;53.582;10.112;2023-07-24T21:06:32;7.63;;;2.53;;
69856;SDS011;57147;53.582;10.112;2023-07-24T21:11:34;4.90;;;1.83;;
69856;SDS011;57147;53.582;10.112;2023-07-24T21:16:35;5.68;;;2.72;;
69856;SDS011;57147;53.582;10.112;2023-07-24T21:21:39;4.75;;;2.05;;
69856;SDS011;57147;53.582;10.112;2023-07-24T21:26:39;5.70;;;1.80;;
69856;SDS011;57147;53.582;10.112;2023-07-24T21:31:40;5.32;;;1.45;;
69856;SDS011;57147;53.582;10.112;2023-07-24T21:36:43;6.28;;;1.35;;
69856;SDS011;57147;53.582;10.112;2023-07-24T21:41:48;4.82;;;1.15;;
69856;SDS011;57147;53.582;10.112;2023-07-24T21:46:49;4.38;;;1.38;;
69856;SDS011;57147;53.582;10.112;2023-07-24T21:52:01;6.00;;;3.20;;
69856;SDS011;57147;53.582;10.112;2023-07-24T21:57:02;5.00;;;2.55;;
69856;SDS011;57147;53.582;10.112;2023-07-24T22:02:04;6.30;;;2.75;;
69856;SDS011;57147;53.582;10.112;2023-07-24T22:07:08;6.70;;;1.73;;
69856;SDS011;57147;53.582;10.112;2023-07-24T22:12:08;8.50;;;3.55;;
69856;SDS011;57147;53.582;10.112;2023-07-24T22:17:09;7.00;;;1.85;;
69856;SDS011;57147;53.582;10.112;2023-07-24T22:22:12;4.78;;;1.80;;
69856;SDS011;57147;53.582;10.112;2023-07-24T22:27:13;5.80;;;1.23;;
69856;SDS011;57147;53.582;10.112;2023-07-24T22:32:13;6.13;;;2.33;;
69856;SDS011;57147;53.582;10.112;2023-07-24T22:37:18;5.57;;;1.90;;
69856;SDS011;57147;53.582;10.112;2023-07-24T22:47:19;6.68;;;1.75;;
69856;SDS011;57147;53.582;10.112;2023-07-24T22:52:22;4.32;;;1.77;;
69856;SDS011;57147;53.582;10.112;2023-07-24T22:57:23;4.78;;;1.63;;
69856;SDS011;57147;53.582;10.112;2023-07-24T23:02:23;7.38;;;2.03;;
69856;SDS011;57147;53.582;10.112;2023-07-24T23:07:27;6.18;;;1.77;;
69856;SDS011;57147;53.582;10.112;2023-07-24T23:12:27;4.68;;;1.27;;
69856;SDS011;57147;53.582;10.112;2023-07-24T23:17:28;4.93;;;1.67;;
69856;SDS011;57147;53.582;10.112;2023-07-24T23:22:31;4.63;;;1.92;;
69856;SDS011;57147;53.582;10.112;2023-07-24T23:27:32;6.47;;;2.38;;
69856;SDS011;57147;53.582;10.112;2023-07-24T23:32:32;4.13;;;1.63;;
69856;SDS011;57147;53.582;10.112;2023-07-24T23:37:35;6.28;;;2.10;;
69856;SDS011;57147;53.582;10.112;2023-07-24T23:42:36;5.15;;;1.92;;
69856;SDS011;57147;53.582;10.112;2023-07-24T23:47:37;5.32;;;2.10;;
69856;SDS011;57147;53.582;10.112;2023-07-24T23:52:40;6.93;;;2.08;;
69856;SDS011;57147;53.582;10.112;2023-07-24T23:57:41;5.57;;;1.67;;
